sensor_id;sensor_type;location;lat;lon;timestamp;temperature;humidity
2112;DHT22;1062;52.538;13.400;2022-09-09T00:00:23;14.80;99.90
2112;DHT22;1062;52.538;13.400;2022-09-09T00:02:58;14.90;99.90
2112;DHT22;1062;52.538;13.400;2022-09-09T00:05:34;14.90;99.90
2112;DHT22;1062;52.538;13.400;2022-09-09T00:08:02;14.90;99.90
2112;DHT22;1062;52.538;13.400;2022-09-09T00:10:36;14.90;99.90
2112;DHT22;1062;52.538;13.400;2022-09-09T00:13:26;14.80;99.90
2112;DHT22;1062;52.538;13.400;2022-09-09T00:16:16;14.70;99.90
2112;DHT22;1062;52.538;13.400;2022-09-09T00:21:30;14.80;99.90
2112;DHT22;1062;52.538;13.400;2022-09-09T00:23:58;14.80;99.90
2112;DHT22;1062;52.538;13.400;2022-09-09T00:26:38;14.70;99.90
2112;DHT22;1062;52.538;13.400;2022-09-09T00:29:14;14.60;99.90
2112;DHT22;1062;52.538;13.400;2022-09-09T00:31:44;14.70;99.90
2112;DHT22;1062;52.538;13.400;2022-09-09T00:34:16;14.70;99.90
2112;DHT22;1062;52.538;13.400;2022-09-09T00:36:43;14.70;99.90
2112;DHT22;1062;52.538;13.400;2022-09-09T00:39:39;14.70;99.90
2112;DHT22;1062;52.538;13.400;2022-09-09T00:45:02;14.70;99.90
2112;DHT22;1062;52.538;13.400;2022-09-09T00:47:50;14.60;99.90
2112;DHT22;1062;52.538;13.400;2022-09-09T00:50:31;14.50;99.90
2112;DHT22;1062;52.538;13.400;2022-09-09T00:58:15;14.50;99.90
2112;DHT22;1062;52.538;13.400;2022-09-09T01:00:46;14.60;99.90
2112;DHT22;1062;52.538;13.400;2022-09-09T01:06:22;14.60;99.90
2112;DHT22;1062;52.538;13.400;2022-09-09T01:14:41;14.40;99.90
2112;DHT22;1062;52.538;13.400;2022-09-09T01:17:31;14.50;99.90
2112;DHT22;1062;52.538;13.400;2022-09-09T01:22:37;14.50;99.90
2112;DHT22;1062;52.538;13.400;2022-09-09T01:27:55;14.40;99.90
2112;DHT22;1062;52.538;13.400;2022-09-09T01:30:22;14.40;99.90
2112;DHT22;1062;52.538;13.400;2022-09-09T01:32:55;14.40;99.90
2112;DHT22;1062;52.538;13.400;2022-09-09T01:35:33;14.40;99.90
2112;DHT22;1062;52.538;13.400;2022-09-09T01:38:00;14.40;99.90
2112;DHT22;1062;52.538;13.400;2022-09-09T01:40:26;14.30;99.90
2112;DHT22;1062;52.538;13.400;2022-09-09T01:42:52;14.30;99.90
2112;DHT22;1062;52.538;13.400;2022-09-09T01:45:18;14.30;99.90
2112;DHT22;1062;52.538;13.400;2022-09-09T01:47:45;14.30;99.90
2112;DHT22;1062;52.538;13.400;2022-09-09T01:50:13;14.20;99.90
2112;DHT22;1062;52.538;13.400;2022-09-09T01:52:40;14.20;99.90
2112;DHT22;1062;52.538;13.400;2022-09-09T01:55:07;14.20;99.90
2112;DHT22;1062;52.538;13.400;2022-09-09T01:57:43;14.20;99.90
2112;DHT22;1062;52.538;13.400;2022-09-09T02:00:15;14.20;99.90
2112;DHT22;1062;52.538;13.400;2022-09-09T02:07:49;14.10;99.90
2112;DHT22;1062;52.538;13.400;2022-09-09T02:10:25;14.10;99.90
2112;DHT22;1062;52.538;13.400;2022-09-09T02:13:01;14.10;99.90
2112;DHT22;1062;52.538;13.400;2022-09-09T02:15:37;14.10;99.90
2112;DHT22;1062;52.538;13.400;2022-09-09T02:18:08;14.00;99.90
2112;DHT22;1062;52.538;13.400;2022-09-09T02:20:37;14.00;99.90
2112;DHT22;1062;52.538;13.400;2022-09-09T02:23:05;14.00;99.90
2112;DHT22;1062;52.538;13.400;2022-09-09T02:25:31;14.00;99.90
2112;DHT22;1062;52.538;13.400;2022-09-09T02:27:58;14.10;99.90
2112;DHT22;1062;52.538;13.400;2022-09-09T02:30:24;14.10;99.90
2112;DHT22;1062;52.538;13.400;2022-09-09T02:32:52;14.10;99.90
2112;DHT22;1062;52.538;13.400;2022-09-09T02:35:23;14.10;99.90
2112;DHT22;1062;52.538;13.400;2022-09-09T02:37:52;14.00;99.90
2112;DHT22;1062;52.538;13.400;2022-09-09T02:40:19;14.00;99.90
2112;DHT22;1062;52.538;13.400;2022-09-09T02:42:47;14.00;99.90
2112;DHT22;1062;52.538;13.400;2022-09-09T02:45:18;14.00;99.90
2112;DHT22;1062;52.538;13.400;2022-09-09T02:48:16;14.00;99.90
2112;DHT22;1062;52.538;13.400;2022-09-09T02:51:06;13.90;99.90
2112;DHT22;1062;52.538;13.400;2022-09-09T02:53:53;13.90;99.90
2112;DHT22;1062;52.538;13.400;2022-09-09T02:56:21;13.90;99.90
2112;DHT22;1062;52.538;13.400;2022-09-09T02:58:49;13.90;99.90
2112;DHT22;1062;52.538;13.400;2022-09-09T03:01:17;13.90;99.90
2112;DHT22;1062;52.538;13.400;2022-09-09T03:03:43;13.90;99.90
2112;DHT22;1062;52.538;13.400;2022-09-09T03:06:09;13.90;99.90
2112;DHT22;1062;52.538;13.400;2022-09-09T03:08:37;13.90;99.90
2112;DHT22;1062;52.538;13.400;2022-09-09T03:11:02;13.80;99.90
2112;DHT22;1062;52.538;13.400;2022-09-09T03:13:28;13.80;99.90
2112;DHT22;1062;52.538;13.400;2022-09-09T03:15:54;13.80;99.90
2112;DHT22;1062;52.538;13.400;2022-09-09T03:18:20;13.80;99.90
2112;DHT22;1062;52.538;13.400;2022-09-09T03:20:46;13.80;99.90
2112;DHT22;1062;52.538;13.400;2022-09-09T03:23:14;13.70;99.90
2112;DHT22;1062;52.538;13.400;2022-09-09T03:25:39;13.80;99.90
2112;DHT22;1062;52.538;13.400;2022-09-09T03:28:11;13.80;99.90
2112;DHT22;1062;52.538;13.400;2022-09-09T03:30:36;13.70;99.90
2112;DHT22;1062;52.538;13.400;2022-09-09T03:33:03;13.80;99.90
2112;DHT22;1062;52.538;13.400;2022-09-09T03:35:29;13.80;99.90
2112;DHT22;1062;52.538;13.400;2022-09-09T03:37:55;13.80;99.90
2112;DHT22;1062;52.538;13.400;2022-09-09T03:40:21;13.70;99.90
2112;DHT22;1062;52.538;13.400;2022-09-09T03:42:47;13.70;99.90
2112;DHT22;1062;52.538;13.400;2022-09-09T03:45:13;13.70;99.90
2112;DHT22;1062;52.538;13.400;2022-09-09T03:47:39;13.70;99.90
2112;DHT22;1062;52.538;13.400;2022-09-09T03:50:06;13.70;99.90
2112;DHT22;1062;52.538;13.400;2022-09-09T03:52:38;13.70;99.90
2112;DHT22;1062;52.538;13.400;2022-09-09T03:55:05;13.70;99.90
2112;DHT22;1062;52.538;13.400;2022-09-09T03:57:31;13.70;99.90
2112;DHT22;1062;52.538;13.400;2022-09-09T03:59:57;13.70;99.90
2112;DHT22;1062;52.538;13.400;2022-09-09T04:02:23;13.70;99.90
2112;DHT22;1062;52.538;13.400;2022-09-09T04:04:48;13.70;99.90
2112;DHT22;1062;52.538;13.400;2022-09-09T04:07:14;13.70;99.90
2112;DHT22;1062;52.538;13.400;2022-09-09T04:09:40;13.70;99.90
2112;DHT22;1062;52.538;13.400;2022-09-09T04:12:05;13.60;99.90
2112;DHT22;1062;52.538;13.400;2022-09-09T04:14:32;13.60;99.90
2112;DHT22;1062;52.538;13.400;2022-09-09T04:16:57;13.60;99.90
2112;DHT22;1062;52.538;13.400;2022-09-09T04:19:25;13.60;99.90
2112;DHT22;1062;52.538;13.400;2022-09-09T04:21:50;13.50;99.90
2112;DHT22;1062;52.538;13.400;2022-09-09T04:24:17;13.60;99.90
2112;DHT22;1062;52.538;13.400;2022-09-09T04:26:42;13.60;99.90
2112;DHT22;1062;52.538;13.400;2022-09-09T04:29:08;13.60;99.90
2112;DHT22;1062;52.538;13.400;2022-09-09T04:31:34;13.60;99.90
2112;DHT22;1062;52.538;13.400;2022-09-09T04:34:00;13.50;99.90
2112;DHT22;1062;52.538;13.400;2022-09-09T04:36:31;13.50;99.90
2112;DHT22;1062;52.538;13.400;2022-09-09T04:38:57;13.50;99.90
2112;DHT22;1062;52.538;13.400;2022-09-09T04:41:23;13.50;99.90
2112;DHT22;1062;52.538;13.400;2022-09-09T04:43:49;13.60;99.90
2112;DHT22;1062;52.538;13.400;2022-09-09T04:46:15;13.60;99.90
2112;DHT22;1062;52.538;13.400;2022-09-09T04:48:42;13.60;99.90
2112;DHT22;1062;52.538;13.400;2022-09-09T04:51:11;13.70;99.90
2112;DHT22;1062;52.538;13.400;2022-09-09T04:53:36;13.70;99.90
2112;DHT22;1062;52.538;13.400;2022-09-09T04:56:08;13.70;99.90
2112;DHT22;1062;52.538;13.400;2022-09-09T04:58:35;13.70;99.90
2112;DHT22;1062;52.538;13.400;2022-09-09T05:01:12;13.80;99.90
2112;DHT22;1062;52.538;13.400;2022-09-09T05:03:38;13.80;99.90
2112;DHT22;1062;52.538;13.400;2022-09-09T05:08:30;13.90;99.90
2112;DHT22;1062;52.538;13.400;2022-09-09T05:10:55;13.90;99.90
2112;DHT22;1062;52.538;13.400;2022-09-09T05:13:21;14.00;99.90
2112;DHT22;1062;52.538;13.400;2022-09-09T05:15:54;14.00;99.90
2112;DHT22;1062;52.538;13.400;2022-09-09T05:18:20;14.10;99.90
2112;DHT22;1062;52.538;13.400;2022-09-09T05:20:48;14.20;99.90
2112;DHT22;1062;52.538;13.400;2022-09-09T05:23:13;14.20;99.90
2112;DHT22;1062;52.538;13.400;2022-09-09T05:25:39;14.30;99.90
2112;DHT22;1062;52.538;13.400;2022-09-09T05:28:07;14.30;99.90
2112;DHT22;1062;52.538;13.400;2022-09-09T05:30:33;14.30;99.90
2112;DHT22;1062;52.538;13.400;2022-09-09T05:32:59;14.40;99.90
2112;DHT22;1062;52.538;13.400;2022-09-09T05:35:24;14.50;99.90
2112;DHT22;1062;52.538;13.400;2022-09-09T05:37:50;14.50;99.90
2112;DHT22;1062;52.538;13.400;2022-09-09T05:40:16;14.60;99.90
2112;DHT22;1062;52.538;13.400;2022-09-09T05:42:41;14.70;99.90
2112;DHT22;1062;52.538;13.400;2022-09-09T05:45:08;14.70;99.90
2112;DHT22;1062;52.538;13.400;2022-09-09T05:47:35;14.90;99.90
2112;DHT22;1062;52.538;13.400;2022-09-09T05:50:03;15.20;99.90
2112;DHT22;1062;52.538;13.400;2022-09-09T05:52:28;15.30;99.90
2112;DHT22;1062;52.538;13.400;2022-09-09T05:54:54;15.70;99.90
2112;DHT22;1062;52.538;13.400;2022-09-09T05:57:21;16.40;99.90
2112;DHT22;1062;52.538;13.400;2022-09-09T05:59:47;16.90;99.90
2112;DHT22;1062;52.538;13.400;2022-09-09T06:02:12;17.20;99.90
2112;DHT22;1062;52.538;13.400;2022-09-09T06:04:38;17.50;99.90
2112;DHT22;1062;52.538;13.400;2022-09-09T06:07:04;17.70;99.90
2112;DHT22;1062;52.538;13.400;2022-09-09T06:09:30;18.00;99.90
2112;DHT22;1062;52.538;13.400;2022-09-09T06:11:56;18.20;99.90
2112;DHT22;1062;52.538;13.400;2022-09-09T06:14:22;18.20;99.90
2112;DHT22;1062;52.538;13.400;2022-09-09T06:16:48;17.80;99.90
2112;DHT22;1062;52.538;13.400;2022-09-09T06:19:14;18.30;99.90
2112;DHT22;1062;52.538;13.400;2022-09-09T06:21:39;18.90;99.90
2112;DHT22;1062;52.538;13.400;2022-09-09T06:24:06;18.80;99.90
2112;DHT22;1062;52.538;13.400;2022-09-09T06:26:37;19.00;99.90
2112;DHT22;1062;52.538;13.400;2022-09-09T06:29:04;19.40;99.90
2112;DHT22;1062;52.538;13.400;2022-09-09T06:31:32;19.70;99.90
2112;DHT22;1062;52.538;13.400;2022-09-09T06:33:59;19.90;99.90
2112;DHT22;1062;52.538;13.400;2022-09-09T06:36:27;20.00;99.90
2112;DHT22;1062;52.538;13.400;2022-09-09T06:38:53;20.20;99.90
2112;DHT22;1062;52.538;13.400;2022-09-09T06:41:20;20.30;99.90
2112;DHT22;1062;52.538;13.400;2022-09-09T06:43:47;20.40;99.90
2112;DHT22;1062;52.538;13.400;2022-09-09T06:46:23;20.00;99.90
2112;DHT22;1062;52.538;13.400;2022-09-09T06:48:49;19.20;99.90
2112;DHT22;1062;52.538;13.400;2022-09-09T06:51:18;18.70;99.90
2112;DHT22;1062;52.538;13.400;2022-09-09T06:53:45;18.20;99.90
2112;DHT22;1062;52.538;13.400;2022-09-09T06:58:43;18.20;99.90
2112;DHT22;1062;52.538;13.400;2022-09-09T07:01:12;19.20;99.90
2112;DHT22;1062;52.538;13.400;2022-09-09T07:03:38;19.60;99.90
2112;DHT22;1062;52.538;13.400;2022-09-09T07:06:05;20.50;99.90
2112;DHT22;1062;52.538;13.400;2022-09-09T07:08:31;20.70;99.90
2112;DHT22;1062;52.538;13.400;2022-09-09T07:11:05;20.90;99.90
2112;DHT22;1062;52.538;13.400;2022-09-09T07:13:31;20.90;99.90
2112;DHT22;1062;52.538;13.400;2022-09-09T07:16:10;21.70;99.90
2112;DHT22;1062;52.538;13.400;2022-09-09T07:18:36;21.80;99.90
2112;DHT22;1062;52.538;13.400;2022-09-09T07:21:03;22.00;99.90
2112;DHT22;1062;52.538;13.400;2022-09-09T07:23:30;21.80;99.90
2112;DHT22;1062;52.538;13.400;2022-09-09T07:25:56;22.40;99.90
2112;DHT22;1062;52.538;13.400;2022-09-09T07:28:23;22.30;99.90
2112;DHT22;1062;52.538;13.400;2022-09-09T07:30:59;23.40;99.90
2112;DHT22;1062;52.538;13.400;2022-09-09T07:33:26;23.10;99.90
2112;DHT22;1062;52.538;13.400;2022-09-09T07:35:52;22.20;99.90
2112;DHT22;1062;52.538;13.400;2022-09-09T07:38:19;21.80;99.90
2112;DHT22;1062;52.538;13.400;2022-09-09T07:40:45;22.00;99.90
2112;DHT22;1062;52.538;13.400;2022-09-09T07:43:11;21.90;99.90
2112;DHT22;1062;52.538;13.400;2022-09-09T07:45:37;22.20;99.90
2112;DHT22;1062;52.538;13.400;2022-09-09T07:48:04;22.20;99.90
2112;DHT22;1062;52.538;13.400;2022-09-09T07:50:30;23.30;99.90
2112;DHT22;1062;52.538;13.400;2022-09-09T07:52:56;23.00;99.90
2112;DHT22;1062;52.538;13.400;2022-09-09T07:55:22;22.60;99.90
2112;DHT22;1062;52.538;13.400;2022-09-09T07:57:50;23.00;99.90
2112;DHT22;1062;52.538;13.400;2022-09-09T08:00:16;22.70;99.90
2112;DHT22;1062;52.538;13.400;2022-09-09T08:02:42;23.30;99.90
2112;DHT22;1062;52.538;13.400;2022-09-09T08:05:07;23.30;99.90
2112;DHT22;1062;52.538;13.400;2022-09-09T08:07:33;23.50;99.90
2112;DHT22;1062;52.538;13.400;2022-09-09T08:09:59;24.00;99.90
2112;DHT22;1062;52.538;13.400;2022-09-09T08:12:24;23.50;99.90
2112;DHT22;1062;52.538;13.400;2022-09-09T08:14:50;23.50;99.90
2112;DHT22;1062;52.538;13.400;2022-09-09T08:17:16;23.20;99.90
2112;DHT22;1062;52.538;13.400;2022-09-09T08:19:42;23.70;99.90
2112;DHT22;1062;52.538;13.400;2022-09-09T08:22:07;23.70;99.90
2112;DHT22;1062;52.538;13.400;2022-09-09T08:24:33;23.00;99.90
2112;DHT22;1062;52.538;13.400;2022-09-09T08:26:59;22.80;99.90
2112;DHT22;1062;52.538;13.400;2022-09-09T08:29:25;23.10;99.90
2112;DHT22;1062;52.538;13.400;2022-09-09T08:31:55;22.90;99.90
2112;DHT22;1062;52.538;13.400;2022-09-09T08:34:22;22.10;99.90
2112;DHT22;1062;52.538;13.400;2022-09-09T08:36:49;22.50;99.90
2112;DHT22;1062;52.538;13.400;2022-09-09T08:39:17;22.20;99.90
2112;DHT22;1062;52.538;13.400;2022-09-09T08:50:19;22.10;99.90
2112;DHT22;1062;52.538;13.400;2022-09-09T08:58:14;21.80;99.90
2112;DHT22;1062;52.538;13.400;2022-09-09T09:03:29;21.10;99.90
2112;DHT22;1062;52.538;13.400;2022-09-09T09:08:49;20.90;99.90
2112;DHT22;1062;52.538;13.400;2022-09-09T09:11:17;21.20;99.90
2112;DHT22;1062;52.538;13.400;2022-09-09T09:14:05;21.20;99.90
2112;DHT22;1062;52.538;13.400;2022-09-09T09:19:35;21.00;99.90
2112;DHT22;1062;52.538;13.400;2022-09-09T09:30:18;21.70;99.90
2112;DHT22;1062;52.538;13.400;2022-09-09T09:33:10;21.70;99.90
2112;DHT22;1062;52.538;13.400;2022-09-09T09:35:37;22.20;99.90
2112;DHT22;1062;52.538;13.400;2022-09-09T09:38:18;22.50;99.90
2112;DHT22;1062;52.538;13.400;2022-09-09T09:41:03;22.70;99.90
2112;DHT22;1062;52.538;13.400;2022-09-09T09:43:37;22.90;99.90
2112;DHT22;1062;52.538;13.400;2022-09-09T09:46:05;22.70;99.90
2112;DHT22;1062;52.538;13.400;2022-09-09T09:48:31;22.90;99.90
2112;DHT22;1062;52.538;13.400;2022-09-09T09:51:11;22.70;99.90
2112;DHT22;1062;52.538;13.400;2022-09-09T09:53:39;22.40;99.90
2112;DHT22;1062;52.538;13.400;2022-09-09T09:56:14;22.40;99.90
2112;DHT22;1062;52.538;13.400;2022-09-09T10:01:25;22.10;99.90
2112;DHT22;1062;52.538;13.400;2022-09-09T10:04:15;22.10;99.90
2112;DHT22;1062;52.538;13.400;2022-09-09T10:06:39;22.80;99.90
2112;DHT22;1062;52.538;13.400;2022-09-09T10:09:30;22.70;99.90
2112;DHT22;1062;52.538;13.400;2022-09-09T10:14:41;22.30;99.90
2112;DHT22;1062;52.538;13.400;2022-09-09T10:17:32;22.30;99.90
2112;DHT22;1062;52.538;13.400;2022-09-09T10:22:35;21.80;99.90
2112;DHT22;1062;52.538;13.400;2022-09-09T10:27:57;22.30;99.90
2112;DHT22;1062;52.538;13.400;2022-09-09T10:33:30;22.90;99.90
2112;DHT22;1062;52.538;13.400;2022-09-09T10:36:20;23.00;99.90
2112;DHT22;1062;52.538;13.400;2022-09-09T10:38:52;23.10;99.90
2112;DHT22;1062;52.538;13.400;2022-09-09T10:44:17;22.50;99.90
2112;DHT22;1062;52.538;13.400;2022-09-09T10:55:17;22.90;99.90
2112;DHT22;1062;52.538;13.400;2022-09-09T10:57:51;22.80;99.90
2112;DHT22;1062;52.538;13.400;2022-09-09T11:00:22;22.70;99.90
2112;DHT22;1062;52.538;13.400;2022-09-09T11:02:55;23.10;99.90
2112;DHT22;1062;52.538;13.400;2022-09-09T11:07:59;23.30;99.90
2112;DHT22;1062;52.538;13.400;2022-09-09T11:10:38;23.00;99.90
2112;DHT22;1062;52.538;13.400;2022-09-09T11:13:20;23.00;99.90
2112;DHT22;1062;52.538;13.400;2022-09-09T11:15:54;22.90;99.90
2112;DHT22;1062;52.538;13.400;2022-09-09T11:18:25;23.00;99.90
2112;DHT22;1062;52.538;13.400;2022-09-09T11:20:59;23.20;99.90
2112;DHT22;1062;52.538;13.400;2022-09-09T11:23:38;23.10;99.90
2112;DHT22;1062;52.538;13.400;2022-09-09T11:26:07;23.10;99.90
2112;DHT22;1062;52.538;13.400;2022-09-09T11:34:23;22.80;99.90
2112;DHT22;1062;52.538;13.400;2022-09-09T11:40:23;22.40;99.90
2112;DHT22;1062;52.538;13.400;2022-09-09T11:42:49;22.70;99.90
2112;DHT22;1062;52.538;13.400;2022-09-09T11:45:27;22.70;99.90
2112;DHT22;1062;52.538;13.400;2022-09-09T11:47:58;22.80;99.90
2112;DHT22;1062;52.538;13.400;2022-09-09T11:52:50;22.30;99.90
2112;DHT22;1062;52.538;13.400;2022-09-09T11:55:34;22.50;99.90
2112;DHT22;1062;52.538;13.400;2022-09-09T11:58:00;22.30;99.90
2112;DHT22;1062;52.538;13.400;2022-09-09T12:03:03;22.40;99.90
2112;DHT22;1062;52.538;13.400;2022-09-09T12:05:38;22.50;99.90
2112;DHT22;1062;52.538;13.400;2022-09-09T12:08:05;22.70;99.90
2112;DHT22;1062;52.538;13.400;2022-09-09T12:10:38;22.90;99.90
2112;DHT22;1062;52.538;13.400;2022-09-09T12:13:16;22.80;99.90
2112;DHT22;1062;52.538;13.400;2022-09-09T12:15:48;23.00;99.90
2112;DHT22;1062;52.538;13.400;2022-09-09T12:21:21;23.40;99.90
2112;DHT22;1062;52.538;13.400;2022-09-09T12:26:34;23.80;99.90
2112;DHT22;1062;52.538;13.400;2022-09-09T12:29:31;23.60;99.90
2112;DHT22;1062;52.538;13.400;2022-09-09T12:32:24;23.30;99.90
2112;DHT22;1062;52.538;13.400;2022-09-09T12:34:56;23.50;99.90
2112;DHT22;1062;52.538;13.400;2022-09-09T12:37:40;23.30;99.90
2112;DHT22;1062;52.538;13.400;2022-09-09T12:40:20;22.90;99.90
2112;DHT22;1062;52.538;13.400;2022-09-09T12:42:46;22.80;99.90
2112;DHT22;1062;52.538;13.400;2022-09-09T12:45:19;22.70;99.90
2112;DHT22;1062;52.538;13.400;2022-09-09T12:50:20;22.70;99.90
2112;DHT22;1062;52.538;13.400;2022-09-09T12:52:47;22.80;99.90
2112;DHT22;1062;52.538;13.400;2022-09-09T12:55:21;23.00;99.90
2112;DHT22;1062;52.538;13.400;2022-09-09T12:57:48;23.00;99.90
2112;DHT22;1062;52.538;13.400;2022-09-09T13:00:24;23.10;99.90
2112;DHT22;1062;52.538;13.400;2022-09-09T13:02:55;23.30;99.90
2112;DHT22;1062;52.538;13.400;2022-09-09T13:05:23;23.20;99.90
2112;DHT22;1062;52.538;13.400;2022-09-09T13:07:50;22.90;99.90
2112;DHT22;1062;52.538;13.400;2022-09-09T13:10:25;22.90;99.90
2112;DHT22;1062;52.538;13.400;2022-09-09T13:12:52;23.00;99.90
2112;DHT22;1062;52.538;13.400;2022-09-09T13:15:26;22.90;99.90
2112;DHT22;1062;52.538;13.400;2022-09-09T13:17:55;22.90;99.90
2112;DHT22;1062;52.538;13.400;2022-09-09T13:20:22;22.80;99.90
2112;DHT22;1062;52.538;13.400;2022-09-09T13:22:49;22.80;99.90
2112;DHT22;1062;52.538;13.400;2022-09-09T13:25:22;22.70;99.90
2112;DHT22;1062;52.538;13.400;2022-09-09T13:27:59;22.70;99.90
2112;DHT22;1062;52.538;13.400;2022-09-09T13:35:35;22.70;99.90
2112;DHT22;1062;52.538;13.400;2022-09-09T13:38:08;22.70;99.90
2112;DHT22;1062;52.538;13.400;2022-09-09T13:40:35;22.60;99.90
2112;DHT22;1062;52.538;13.400;2022-09-09T13:43:02;22.70;99.90
2112;DHT22;1062;52.538;13.400;2022-09-09T13:45:29;22.80;99.90
2112;DHT22;1062;52.538;13.400;2022-09-09T13:47:55;22.70;99.90
2112;DHT22;1062;52.538;13.400;2022-09-09T13:50:22;22.90;99.90
2112;DHT22;1062;52.538;13.400;2022-09-09T13:52:48;23.10;99.90
2112;DHT22;1062;52.538;13.400;2022-09-09T13:55:15;23.30;99.90
2112;DHT22;1062;52.538;13.400;2022-09-09T13:57:53;23.50;99.90
2112;DHT22;1062;52.538;13.400;2022-09-09T14:00:19;23.60;99.90
2112;DHT22;1062;52.538;13.400;2022-09-09T14:02:47;23.50;99.90
2112;DHT22;1062;52.538;13.400;2022-09-09T14:05:13;23.40;99.90
2112;DHT22;1062;52.538;13.400;2022-09-09T14:07:39;23.30;99.90
2112;DHT22;1062;52.538;13.400;2022-09-09T14:10:06;23.30;99.90
2112;DHT22;1062;52.538;13.400;2022-09-09T14:12:32;23.20;99.90
2112;DHT22;1062;52.538;13.400;2022-09-09T14:14:57;23.30;99.90
2112;DHT22;1062;52.538;13.400;2022-09-09T14:17:25;23.50;99.90
2112;DHT22;1062;52.538;13.400;2022-09-09T14:19:54;23.50;99.90
2112;DHT22;1062;52.538;13.400;2022-09-09T14:22:20;23.90;99.90
2112;DHT22;1062;52.538;13.400;2022-09-09T14:24:45;23.60;99.90
2112;DHT22;1062;52.538;13.400;2022-09-09T14:27:11;23.80;99.90
2112;DHT22;1062;52.538;13.400;2022-09-09T14:29:37;24.00;99.90
2112;DHT22;1062;52.538;13.400;2022-09-09T14:32:02;24.10;99.90
2112;DHT22;1062;52.538;13.400;2022-09-09T14:34:28;23.80;99.90
2112;DHT22;1062;52.538;13.400;2022-09-09T14:36:54;24.00;99.90
2112;DHT22;1062;52.538;13.400;2022-09-09T14:39:19;24.20;99.90
2112;DHT22;1062;52.538;13.400;2022-09-09T14:41:45;23.70;99.90
2112;DHT22;1062;52.538;13.400;2022-09-09T14:44:11;23.60;99.90
2112;DHT22;1062;52.538;13.400;2022-09-09T14:46:36;23.50;99.90
2112;DHT22;1062;52.538;13.400;2022-09-09T14:49:02;23.40;99.90
2112;DHT22;1062;52.538;13.400;2022-09-09T14:51:27;23.30;99.90
2112;DHT22;1062;52.538;13.400;2022-09-09T14:53:58;23.10;99.90
2112;DHT22;1062;52.538;13.400;2022-09-09T14:56:27;23.10;99.90
2112;DHT22;1062;52.538;13.400;2022-09-09T14:58:54;23.20;99.90
2112;DHT22;1062;52.538;13.400;2022-09-09T15:01:21;23.20;99.90
2112;DHT22;1062;52.538;13.400;2022-09-09T15:06:20;23.00;99.90
2112;DHT22;1062;52.538;13.400;2022-09-09T15:08:47;22.90;99.90
2112;DHT22;1062;52.538;13.400;2022-09-09T15:11:15;22.90;99.90
2112;DHT22;1062;52.538;13.400;2022-09-09T15:13:43;23.00;99.90
2112;DHT22;1062;52.538;13.400;2022-09-09T15:16:14;23.00;99.90
2112;DHT22;1062;52.538;13.400;2022-09-09T15:18:40;23.00;99.90
2112;DHT22;1062;52.538;13.400;2022-09-09T15:21:09;22.90;99.90
2112;DHT22;1062;52.538;13.400;2022-09-09T15:23:35;22.90;99.90
2112;DHT22;1062;52.538;13.400;2022-09-09T15:26:02;23.10;99.90
2112;DHT22;1062;52.538;13.400;2022-09-09T15:28:28;23.10;99.90
2112;DHT22;1062;52.538;13.400;2022-09-09T15:30:54;22.90;99.90
2112;DHT22;1062;52.538;13.400;2022-09-09T15:33:21;23.00;99.90
2112;DHT22;1062;52.538;13.400;2022-09-09T15:35:48;23.10;99.90
2112;DHT22;1062;52.538;13.400;2022-09-09T15:38:14;23.20;99.90
2112;DHT22;1062;52.538;13.400;2022-09-09T15:40:42;23.00;99.90
2112;DHT22;1062;52.538;13.400;2022-09-09T15:43:08;22.90;99.90
2112;DHT22;1062;52.538;13.400;2022-09-09T15:45:35;22.70;99.90
2112;DHT22;1062;52.538;13.400;2022-09-09T15:48:01;22.70;99.90
2112;DHT22;1062;52.538;13.400;2022-09-09T15:50:27;22.70;99.90
2112;DHT22;1062;52.538;13.400;2022-09-09T15:52:53;22.60;99.90
2112;DHT22;1062;52.538;13.400;2022-09-09T15:55:19;22.40;99.90
2112;DHT22;1062;52.538;13.400;2022-09-09T15:57:46;22.40;99.90
2112;DHT22;1062;52.538;13.400;2022-09-09T16:00:12;22.30;99.90
2112;DHT22;1062;52.538;13.400;2022-09-09T16:02:38;22.20;99.90
2112;DHT22;1062;52.538;13.400;2022-09-09T16:05:04;22.10;99.90
2112;DHT22;1062;52.538;13.400;2022-09-09T16:07:30;22.20;99.90
2112;DHT22;1062;52.538;13.400;2022-09-09T16:09:56;22.20;99.90
2112;DHT22;1062;52.538;13.400;2022-09-09T16:12:21;22.20;99.90
2112;DHT22;1062;52.538;13.400;2022-09-09T16:14:47;22.10;99.90
2112;DHT22;1062;52.538;13.400;2022-09-09T16:17:12;22.10;99.90
2112;DHT22;1062;52.538;13.400;2022-09-09T16:19:39;22.10;99.90
2112;DHT22;1062;52.538;13.400;2022-09-09T16:22:05;22.10;99.90
2112;DHT22;1062;52.538;13.400;2022-09-09T16:24:32;22.20;99.90
2112;DHT22;1062;52.538;13.400;2022-09-09T16:26:57;22.00;99.90
2112;DHT22;1062;52.538;13.400;2022-09-09T16:29:23;22.00;99.90
2112;DHT22;1062;52.538;13.400;2022-09-09T16:31:51;22.00;99.90
2112;DHT22;1062;52.538;13.400;2022-09-09T16:34:17;22.00;99.90
2112;DHT22;1062;52.538;13.400;2022-09-09T16:36:44;22.00;99.90
2112;DHT22;1062;52.538;13.400;2022-09-09T16:39:12;22.00;99.90
2112;DHT22;1062;52.538;13.400;2022-09-09T16:41:39;22.00;99.90
2112;DHT22;1062;52.538;13.400;2022-09-09T16:44:07;22.00;99.90
2112;DHT22;1062;52.538;13.400;2022-09-09T16:46:39;21.90;99.90
2112;DHT22;1062;52.538;13.400;2022-09-09T16:49:11;21.90;99.90
2112;DHT22;1062;52.538;13.400;2022-09-09T16:51:41;21.90;99.90
2112;DHT22;1062;52.538;13.400;2022-09-09T16:54:08;21.80;99.90
2112;DHT22;1062;52.538;13.400;2022-09-09T16:56:38;21.70;99.90
2112;DHT22;1062;52.538;13.400;2022-09-09T16:59:09;21.60;99.90
2112;DHT22;1062;52.538;13.400;2022-09-09T17:01:38;21.60;99.90
2112;DHT22;1062;52.538;13.400;2022-09-09T17:04:07;21.60;99.90
2112;DHT22;1062;52.538;13.400;2022-09-09T17:06:34;21.60;99.90
2112;DHT22;1062;52.538;13.400;2022-09-09T17:09:02;21.50;99.90
2112;DHT22;1062;52.538;13.400;2022-09-09T17:11:29;21.40;99.90
2112;DHT22;1062;52.538;13.400;2022-09-09T17:13:56;21.40;99.90
2112;DHT22;1062;52.538;13.400;2022-09-09T17:16:25;21.30;99.90
2112;DHT22;1062;52.538;13.400;2022-09-09T17:18:53;21.20;99.90
2112;DHT22;1062;52.538;13.400;2022-09-09T17:21:21;21.10;99.90
2112;DHT22;1062;52.538;13.400;2022-09-09T17:23:47;21.00;99.90
2112;DHT22;1062;52.538;13.400;2022-09-09T17:26:15;21.00;99.90
2112;DHT22;1062;52.538;13.400;2022-09-09T17:28:42;20.90;99.90
2112;DHT22;1062;52.538;13.400;2022-09-09T17:31:10;20.80;99.90
2112;DHT22;1062;52.538;13.400;2022-09-09T17:33:38;20.70;99.90
2112;DHT22;1062;52.538;13.400;2022-09-09T17:36:10;20.60;99.90
2112;DHT22;1062;52.538;13.400;2022-09-09T17:38:36;20.40;99.90
2112;DHT22;1062;52.538;13.400;2022-09-09T17:41:03;20.30;99.90
2112;DHT22;1062;52.538;13.400;2022-09-09T17:43:29;20.20;99.90
2112;DHT22;1062;52.538;13.400;2022-09-09T17:45:55;20.00;99.90
2112;DHT22;1062;52.538;13.400;2022-09-09T17:48:20;19.90;99.90
2112;DHT22;1062;52.538;13.400;2022-09-09T17:50:46;19.80;99.90
2112;DHT22;1062;52.538;13.400;2022-09-09T17:53:12;19.70;99.90
2112;DHT22;1062;52.538;13.400;2022-09-09T17:55:37;19.60;99.90
2112;DHT22;1062;52.538;13.400;2022-09-09T17:58:03;19.60;99.90
2112;DHT22;1062;52.538;13.400;2022-09-09T18:00:29;19.50;99.90